Time;durP1;ratioP1;P1;durP2;ratioP2;P2;SDS_P1;SDS_P2;PMS_P1;PMS_P2;Temp;Humidity;BMP_temperature;BMP_pressure;BME280_temperature;BME280_humidity;BME280_pressure;Samples;Min_cycle;Max_cycle;Signal;HPM_P1;HPM_P2
2023/10/15 00:01:07;;;;;;;;;2.50;0.00;;;;;15.67;61.75;101745.88;6340649;22;45464;-73
2023/10/15 00:03:33;;;;;;;;;2.00;2.00;;;;;15.70;61.69;101758.34;6340354;22;45254;-73
2023/10/15 00:05:59;;;;;;;;;1.00;1.00;;;;;15.64;61.92;101756.78;6340723;22;45405;-73
2023/10/15 00:08:24;;;;;;;;;2.50;1.25;;;;;15.69;61.76;101761.97;6311917;22;45552;-73
2023/10/15 00:10:50;;;;;;;;;1.00;1.00;;;;;15.62;61.75;101746.97;6341121;22;45193;-73
2023/10/15 00:13:15;;;;;;;;;2.75;1.00;;;;;15.61;61.84;101751.50;6340192;22;45358;-73
2023/10/15 00:15:42;;;;;;;;;2.00;1.00;;;;;15.60;61.78;101743.47;6340803;22;45325;-73
2023/10/15 00:18:10;;;;;;;;;1.25;1.00;;;;;15.65;61.64;101752.25;6311999;22;46082;-73
2023/10/15 00:20:36;;;;;;;;;0.00;0.00;;;;;15.67;61.51;101751.28;6340114;22;45401;-73
2023/10/15 00:23:04;;;;;;;;;2.00;2.00;;;;;15.62;61.64;101746.97;6340621;22;45196;-73
2023/10/15 00:25:35;;;;;;;;;1.50;1.00;;;;;15.60;61.75;101752.41;6339880;22;45342;-73
2023/10/15 00:28:05;;;;;;;;;2.00;2.00;;;;;15.54;61.67;101747.28;6340103;22;45447;-72
2023/10/15 00:30:34;;;;;;;;;1.50;1.00;;;;;15.55;61.74;101749.03;6340374;22;45264;-73
2023/10/15 00:33:03;;;;;;;;;1.75;1.00;;;;;15.50;62.04;101756.38;6340747;22;45381;-73
2023/10/15 00:35:33;;;;;;;;;1.00;1.00;;;;;15.45;61.87;101747.63;6312194;22;46153;-73
2023/10/15 00:38:15;;;;;;;;;0.50;0.25;;;;;15.50;61.74;101756.38;6340230;22;45747;-73
2023/10/15 00:40:41;;;;;;;;;2.00;1.00;;;;;15.41;61.82;101763.00;6340682;22;45235;-73
2023/10/15 00:43:07;;;;;;;;;0.50;0.50;;;;;15.42;61.99;101761.16;6340164;22;45354;-73
2023/10/15 00:45:43;;;;;;;;;1.00;1.00;;;;;15.37;61.73;101759.53;6340589;22;45435;-73
2023/10/15 00:48:11;;;;;;;;;1.50;0.00;;;;;15.35;61.69;101761.41;6340124;22;45338;-72
2023/10/15 00:50:41;;;;;;;;;1.00;1.00;;;;;15.36;61.80;101759.59;6339567;22;45197;-73
2023/10/15 00:53:21;;;;;;;;;1.00;1.00;;;;;15.34;61.81;101751.56;6339424;22;45337;-73
2023/10/15 00:55:53;;;;;;;;;3.75;1.00;;;;;15.31;61.69;101742.75;6340040;22;45278;-73
2023/10/15 00:58:45;;;;;;;;;1.00;1.00;;;;;15.35;61.82;101763.22;6339737;22;45381;-73
2023/10/15 01:03:53;;;;;;;;;0.75;0.75;;;;;15.27;61.71;101759.91;6340020;22;45381;-73
2023/10/15 01:06:30;;;;;;;;;1.00;1.00;;;;;15.29;61.77;101767.00;6340183;22;46099;-73
2023/10/15 01:09:10;;;;;;;;;2.50;0.00;;;;;15.27;61.88;101762.59;6312146;22;45749;-73
2023/10/15 01:11:36;;;;;;;;;3.00;1.00;;;;;15.27;61.82;101767.97;6340556;22;45316;-73
2023/10/15 01:14:01;;;;;;;;;1.00;0.25;;;;;15.21;62.12;101754.78;6340130;22;45250;-73
2023/10/15 01:16:31;;;;;;;;;1.00;1.00;;;;;15.24;62.29;101769.00;6340282;22;45422;-73
2023/10/15 01:19:05;;;;;;;;;1.50;0.50;;;;;15.15;61.71;101753.16;6340189;22;45495;-73
2023/10/15 01:21:32;;;;;;;;;0.00;0.00;;;;;15.21;62.11;101768.22;6339513;22;45380;-73
2023/10/15 01:24:05;;;;;;;;;4.00;1.00;;;;;15.19;62.47;101771.84;6338530;22;45297;-73
2023/10/15 01:26:34;;;;;;;;;1.50;1.00;;;;;15.18;62.14;101769.19;6339965;22;45290;-73
2023/10/15 01:29:01;;;;;;;;;1.00;1.00;;;;;15.11;62.07;101757.78;6340184;22;45633;-72
2023/10/15 01:31:26;;;;;;;;;1.00;1.00;;;;;15.05;62.43;101747.25;6340575;22;45251;-72
2023/10/15 01:33:53;;;;;;;;;0.00;0.00;;;;;15.13;62.35;101752.34;6340346;22;45244;-73
2023/10/15 01:36:21;;;;;;;;;1.00;1.00;;;;;15.05;62.28;101744.56;6340052;22;45334;-73
2023/10/15 01:38:47;;;;;;;;;3.00;0.25;;;;;15.04;62.38;101745.50;6340242;22;45411;-73
2023/10/15 01:41:16;;;;;;;;;0.25;0.25;;;;;15.06;62.44;101742.75;6340852;22;45251;-73
2023/10/15 01:43:46;;;;;;;;;1.00;1.00;;;;;15.01;62.70;101745.59;6339493;22;45448;-73
2023/10/15 01:46:12;;;;;;;;;0.00;0.00;;;;;15.05;62.79;101752.63;6339754;22;46993;-72
2023/10/15 01:48:41;;;;;;;;;0.75;0.75;;;;;15.04;62.63;101750.88;6340229;22;45453;-73
2023/10/15 01:51:06;;;;;;;;;0.75;0.75;;;;;15.05;62.75;101747.25;6286458;22;45354;-73
2023/10/15 01:53:39;;;;;;;;;1.25;0.50;;;;;14.97;62.62;101743.94;6338630;22;45258;-73
2023/10/15 01:56:06;;;;;;;;;1.50;1.50;;;;;15.00;62.53;101743.81;6339610;22;45353;-72
2023/10/15 01:58:32;;;;;;;;;0.00;0.00;;;;;15.03;62.64;101749.09;6339694;22;45244;-73
2023/10/15 02:01:13;;;;;;;;;1.00;1.00;;;;;14.97;62.59;101722.44;6340656;22;45505;-72
2023/10/15 02:03:41;;;;;;;;;1.25;1.25;;;;;14.99;62.64;101736.69;6339423;22;45388;-73
2023/10/15 02:06:06;;;;;;;;;1.75;1.00;;;;;15.00;62.52;101735.75;6339714;22;45592;-73
2023/10/15 02:08:33;;;;;;;;;0.25;0.00;;;;;14.97;62.70;101741.25;6340149;22;45247;-73
2023/10/15 02:11:02;;;;;;;;;0.00;0.00;;;;;14.92;62.52;101745.94;6339834;22;45315;-73
2023/10/15 02:13:28;;;;;;;;;1.00;1.00;;;;;14.96;62.61;101763.69;6339581;22;45280;-73
2023/10/15 02:15:55;;;;;;;;;0.75;0.00;;;;;14.82;62.74;101751.59;6311872;22;46472;-73
2023/10/15 02:18:21;;;;;;;;;1.00;0.25;;;;;14.85;62.73;101766.75;6339358;22;45252;-73
2023/10/15 02:23:18;;;;;;;;;0.00;0.00;;;;;14.87;62.70;101775.66;6338456;22;45475;-72
2023/10/15 02:25:46;;;;;;;;;1.00;1.00;;;;;14.79;62.73;101762.44;6339317;22;47149;-72
2023/10/15 02:28:24;;;;;;;;;1.75;0.75;;;;;14.76;62.83;101773.31;6339328;22;45437;-73
2023/10/15 02:30:50;;;;;;;;;2.50;0.75;;;;;14.79;62.74;101778.56;6310382;22;45259;-73
2023/10/15 02:33:17;;;;;;;;;0.75;0.75;;;;;14.73;62.93;101778.78;6285488;22;45277;-72
2023/10/15 02:35:47;;;;;;;;;2.00;1.00;;;;;14.71;62.52;101766.34;6339127;22;46222;-73
2023/10/15 02:38:13;;;;;;;;;1.00;1.00;;;;;14.76;62.61;101786.75;6339788;22;45470;-73
2023/10/15 02:40:58;;;;;;;;;1.00;1.00;;;;;14.74;62.87;101769.78;6339789;22;45318;-73
2023/10/15 02:43:27;;;;;;;;;1.00;1.00;;;;;14.69;62.89;101762.81;6339064;22;45397;-73
2023/10/15 02:45:52;;;;;;;;;2.75;1.00;;;;;14.73;62.93;101777.91;6339452;22;45948;-72
2023/10/15 02:48:22;;;;;;;;;3.25;1.00;;;;;14.68;62.58;101770.00;6339547;22;45331;-73
2023/10/15 02:51:00;;;;;;;;;1.00;1.00;;;;;14.66;63.10;101774.53;6338594;22;45585;-73
2023/10/15 02:53:52;;;;;;;;;1.00;1.00;;;;;14.60;63.29;101763.97;6338130;22;45461;-73
2023/10/15 02:56:15;;;;;;;;;2.75;0.00;;;;;14.62;62.98;101770.22;6338403;22;45866;-73
2023/10/15 02:58:42;;;;;;;;;4.00;2.00;;;;;14.66;63.10;101779.91;6311752;22;45335;-72
2023/10/15 03:01:29;;;;;;;;;0.25;0.00;;;;;14.56;62.81;101773.94;6339847;22;45180;-73
2023/10/15 03:03:55;;;;;;;;;2.00;1.00;;;;;14.50;63.03;101771.47;6338368;22;45231;-73
2023/10/15 03:06:28;;;;;;;;;0.75;0.75;;;;;14.49;63.11;101776.88;6338943;22;46078;-73
2023/10/15 03:08:56;;;;;;;;;1.00;1.00;;;;;14.53;63.26;101786.59;6338793;22;45477;-73
2023/10/15 03:11:23;;;;;;;;;1.00;1.00;;;;;14.36;63.17;101769.19;6339056;22;45553;-73
2023/10/15 03:13:53;;;;;;;;;0.25;0.25;;;;;14.49;63.06;101779.56;6339102;22;45348;-72
2023/10/15 03:16:24;;;;;;;;;1.00;1.00;;;;;14.53;63.00;101791.97;6338961;22;46338;-72
2023/10/15 03:18:52;;;;;;;;;1.75;1.25;;;;;14.45;63.00;101782.34;6339326;22;45503;-73
2023/10/15 03:21:25;;;;;;;;;2.50;1.50;;;;;14.50;63.08;101794.75;6310479;22;45322;-73
2023/10/15 03:23:57;;;;;;;;;0.00;0.00;;;;;14.50;63.35;101797.44;6338766;22;45275;-73
2023/10/15 03:26:31;;;;;;;;;2.00;2.00;;;;;14.41;63.41;101787.84;6339232;22;46159;-73
2023/10/15 03:28:59;;;;;;;;;1.00;1.00;;;;;14.34;63.50;101779.13;6339107;22;45434;-73
2023/10/15 03:31:28;;;;;;;;;1.50;0.25;;;;;14.41;63.50;101799.47;6339605;22;45357;-73
2023/10/15 03:36:50;;;;;;;;;1.00;1.00;;;;;14.37;63.39;101799.66;6314993;22;45305;-72
2023/10/15 03:40:10;;;;;;;;;2.25;2.00;;;;;14.34;63.68;101799.75;6341107;22;45482;-73
2023/10/15 03:42:26;;;;;;;;;5.00;2.00;;;;;14.38;63.60;101802.28;6327385;22;45374;-73
2023/10/15 03:44:59;;;;;;;;;2.00;2.00;;;;;14.39;63.47;101795.09;6340407;22;45390;-73
2023/10/15 03:47:24;;;;;;;;;1.00;1.00;;;;;14.29;63.55;101788.25;6340858;22;45476;-72
2023/10/15 03:49:52;;;;;;;;;1.00;1.00;;;;;14.26;63.60;101790.09;6340618;22;45413;-72
2023/10/15 03:52:21;;;;;;;;;0.25;0.25;;;;;14.33;63.49;101801.53;6339785;22;45488;-72
2023/10/15 03:54:50;;;;;;;;;2.00;1.25;;;;;14.31;64.00;101799.81;6340647;22;45308;-73
2023/10/15 03:57:34;;;;;;;;;1.00;1.00;;;;;14.24;63.82;101788.41;6339932;22;45418;-72
2023/10/15 04:00:00;;;;;;;;;1.00;1.00;;;;;14.32;63.83;101802.47;6339641;22;45623;-73
2023/10/15 04:05:20;;;;;;;;;2.00;2.00;;;;;14.20;63.86;101784.94;6302139;22;45357;-73
2023/10/15 04:07:48;;;;;;;;;2.50;2.00;;;;;14.25;64.19;101804.47;6340582;22;46223;-73
2023/10/15 04:10:15;;;;;;;;;1.00;1.00;;;;;14.19;64.27;101804.66;6340045;22;45342;-73
2023/10/15 04:12:43;;;;;;;;;2.50;1.50;;;;;14.21;63.77;101812.66;6340848;22;45211;-72
2023/10/15 04:15:16;;;;;;;;;0.00;0.00;;;;;14.11;63.81;101795.94;6340193;22;45486;-73
2023/10/15 04:17:45;;;;;;;;;1.00;1.00;;;;;14.23;64.01;101822.44;6312203;22;46607;-72
2023/10/15 04:20:13;;;;;;;;;2.25;1.00;;;;;14.18;63.89;101815.44;6340076;22;45227;-73
2023/10/15 04:22:44;;;;;;;;;0.00;0.00;;;;;14.20;63.93;101827.91;6339730;22;45321;-73
2023/10/15 04:25:23;;;;;;;;;1.00;1.00;;;;;14.20;64.28;101835.94;6340351;22;45264;-72
2023/10/15 04:27:48;;;;;;;;;1.75;1.00;;;;;14.07;64.25;101822.00;6340445;22;46092;-72
2023/10/15 04:30:14;;;;;;;;;3.00;2.00;;;;;14.14;63.86;101829.88;6339807;22;45222;-73
2023/10/15 04:35:11;;;;;;;;;1.00;1.00;;;;;14.05;64.39;101825.69;6340484;22;45426;-73
2023/10/15 04:37:37;;;;;;;;;1.25;1.25;;;;;14.15;64.08;101835.22;6340462;22;46426;-73
2023/10/15 04:40:06;;;;;;;;;1.50;1.50;;;;;14.11;64.36;101822.78;6340988;22;45402;-73
2023/10/15 04:42:43;;;;;;;;;3.50;1.75;;;;;14.18;64.32;101834.22;6340491;22;45796;-72
2023/10/15 04:45:20;;;;;;;;;2.00;2.00;;;;;14.15;64.15;101847.72;6311529;22;46081;-73
2023/10/15 04:47:51;;;;;;;;;4.00;2.00;;;;;14.09;64.49;101855.03;6339892;22;46927;-72
2023/10/15 04:50:16;;;;;;;;;1.00;1.00;;;;;14.12;64.11;101847.84;6312517;22;45541;-73
2023/10/15 04:52:42;;;;;;;;;4.00;2.00;;;;;14.14;64.54;101862.09;6340276;22;45946;-73
2023/10/15 04:55:10;;;;;;;;;1.00;1.00;;;;;14.04;64.63;101848.94;6339588;22;45293;-73
2023/10/15 04:57:36;;;;;;;;;3.00;3.00;;;;;14.07;64.80;101858.72;6339865;22;46349;-72
2023/10/15 05:00:06;;;;;;;;;1.25;1.00;;;;;14.06;64.60;101857.81;6340421;22;45291;-72
2023/10/15 05:02:32;;;;;;;;;1.75;1.25;;;;;14.10;64.63;101866.69;6340163;22;45324;-73
2023/10/15 05:04:57;;;;;;;;;3.25;2.00;;;;;14.01;64.77;101851.72;6340211;22;45452;-73
2023/10/15 05:07:23;;;;;;;;;1.75;1.75;;;;;14.04;64.69;101859.69;6340310;22;45290;-73
2023/10/15 05:09:49;;;;;;;;;2.25;1.75;;;;;14.07;64.54;101858.72;6340085;22;45409;-73
2023/10/15 05:12:14;;;;;;;;;1.75;1.50;;;;;14.02;64.49;101853.47;6312277;22;45339;-73
2023/10/15 05:14:40;;;;;;;;;2.50;1.25;;;;;14.06;64.59;101857.81;6340121;22;45385;-73
2023/10/15 05:17:06;;;;;;;;;2.00;2.00;;;;;14.00;64.70;101852.66;6340685;22;46438;-72
2023/10/15 05:19:31;;;;;;;;;4.00;2.50;;;;;14.00;64.72;101849.97;6339397;22;45254;-73
2023/10/15 05:21:56;;;;;;;;;1.25;1.25;;;;;14.03;64.74;101851.66;6338968;22;45603;-73
2023/10/15 05:24:22;;;;;;;;;5.00;2.75;;;;;14.05;65.02;101856.06;6339915;22;51126;-73
2023/10/15 05:26:50;;;;;;;;;2.00;2.00;;;;;13.99;64.78;101842.81;6339811;22;45259;-72
2023/10/15 05:29:15;;;;;;;;;1.75;1.75;;;;;14.07;65.82;101842.63;6339750;22;54639;-73
2023/10/15 05:31:42;;;;;;;;;2.00;2.00;;;;;14.11;65.72;101846.94;6339820;22;45303;-73
2023/10/15 05:34:07;;;;;;;;;1.25;1.00;;;;;14.06;65.75;101848.91;6339558;22;45391;-73
2023/10/15 05:36:37;;;;;;;;;2.00;2.00;;;;;14.02;65.71;101841.88;6340465;22;45415;-73
2023/10/15 05:39:08;;;;;;;;;2.50;2.50;;;;;14.04;65.42;101845.38;6339869;22;45246;-72
2023/10/15 05:41:34;;;;;;;;;3.75;3.00;;;;;14.08;65.21;101844.34;6339897;22;45569;-72
2023/10/15 05:43:59;;;;;;;;;1.00;1.00;;;;;14.07;65.05;101843.47;6339368;22;45413;-72
2023/10/15 05:46:25;;;;;;;;;2.00;1.25;;;;;14.13;65.24;101853.16;6340107;22;46025;-73
2023/10/15 05:48:51;;;;;;;;;2.25;2.00;;;;;14.06;65.29;101847.06;6339973;22;45387;-73
2023/10/15 05:51:16;;;;;;;;;4.75;3.75;;;;;14.01;65.51;101840.09;6339790;22;45767;-72
2023/10/15 05:53:41;;;;;;;;;3.50;2.50;;;;;14.02;65.50;101856.16;6338604;22;56925;-72
2023/10/15 05:56:07;;;;;;;;;3.00;3.00;;;;;13.96;65.75;101856.34;6339751;22;45282;-72
2023/10/15 05:58:32;;;;;;;;;2.00;2.00;;;;;13.87;65.71;101845.88;6338640;22;45425;-72
2023/10/15 06:00:57;;;;;;;;;2.25;2.25;;;;;13.87;65.84;101845.88;6339831;22;45247;-72
2023/10/15 06:03:23;;;;;;;;;1.00;1.00;;;;;13.85;65.68;101847.72;6339566;22;45370;-73
2023/10/15 06:05:48;;;;;;;;;3.00;2.00;;;;;13.93;65.70;101868.97;6339279;22;47155;-72
2023/10/15 06:08:14;;;;;;;;;2.00;2.00;;;;;13.86;65.81;101862.88;6338883;22;45246;-72
2023/10/15 06:10:39;;;;;;;;;1.75;1.75;;;;;13.85;65.90;101866.53;6338050;22;45464;-73
2023/10/15 06:13:05;;;;;;;;;2.50;2.00;;;;;13.87;65.62;101875.41;6339686;22;45368;-73
2023/10/15 06:15:30;;;;;;;;;2.50;2.50;;;;;13.82;65.83;101877.34;6338063;22;45814;-72
2023/10/15 06:17:56;;;;;;;;;2.75;2.75;;;;;13.76;65.86;101873.00;6339287;22;45536;-78
2023/10/15 06:20:21;;;;;;;;;3.00;2.00;;;;;13.58;65.84;101850.25;6338121;22;45545;-75
2023/10/15 06:22:49;;;;;;;;;2.00;2.00;;;;;13.66;65.87;101868.81;6339989;22;45588;-76
2023/10/15 06:25:18;;;;;;;;;2.25;2.25;;;;;13.71;65.92;101882.97;6339766;22;45519;-77
2023/10/15 06:27:44;;;;;;;;;3.00;2.00;;;;;13.67;66.01;101881.31;6339673;22;45272;-77
2023/10/15 06:30:14;;;;;;;;;5.00;3.00;;;;;13.68;66.10;101888.41;6339033;22;45338;-76
2023/10/15 06:32:47;;;;;;;;;3.00;2.00;;;;;13.66;66.12;101888.47;6339608;22;45294;-76
2023/10/15 06:35:18;;;;;;;;;1.75;1.75;;;;;13.67;66.10;101892.03;6338802;22;46293;-77
2023/10/15 06:37:47;;;;;;;;;2.00;2.00;;;;;13.76;66.04;101912.38;6338934;22;45647;-77
2023/10/15 06:40:16;;;;;;;;;1.75;1.75;;;;;13.70;65.93;101913.44;6311470;22;45270;-76
2023/10/15 06:42:45;;;;;;;;;1.25;1.25;;;;;13.61;66.32;101898.44;6337489;22;45547;-76
2023/10/15 06:45:11;;;;;;;;;1.00;1.00;;;;;13.69;66.38;101908.97;6338913;22;46347;-76
2023/10/15 06:47:37;;;;;;;;;1.50;1.50;;;;;13.59;66.39;101888.69;6339331;22;45338;-76
2023/10/15 06:50:07;;;;;;;;;1.25;1.25;;;;;13.45;66.27;101867.59;6339550;22;45334;-75
2023/10/15 06:52:38;;;;;;;;;4.50;2.75;;;;;13.43;66.41;101875.69;6338153;22;45894;-81
2023/10/15 06:55:04;;;;;;;;;2.00;2.00;;;;;13.40;66.38;101870.41;6337731;22;45601;-75
2023/10/15 06:57:30;;;;;;;;;3.00;1.50;;;;;13.59;66.09;101921.75;6339288;22;45259;-79
2023/10/15 06:59:55;;;;;;;;;1.25;1.25;;;;;13.48;66.46;101905.03;6337859;22;45248;-82
2023/10/15 07:02:20;;;;;;;;;1.50;1.50;;;;;13.47;66.43;101901.50;6338148;22;45430;-76
2023/10/15 07:04:46;;;;;;;;;2.00;1.00;;;;;13.45;66.32;101907.84;6338741;22;46398;-77
2023/10/15 07:07:11;;;;;;;;;2.25;2.25;;;;;13.46;66.29;101913.13;6338734;22;45152;-77
2023/10/15 07:09:37;;;;;;;;;2.50;1.75;;;;;13.57;66.26;101938.81;6337943;22;45290;-71
2023/10/15 07:12:03;;;;;;;;;3.25;2.00;;;;;13.57;66.28;101939.69;6339596;22;45504;-71
2023/10/15 07:14:30;;;;;;;;;1.50;1.50;;;;;13.51;66.53;101929.13;6340053;22;45926;-71
2023/10/15 07:16:56;;;;;;;;;2.00;2.00;;;;;13.53;66.25;101944.25;6340493;22;45552;-70
2023/10/15 07:19:21;;;;;;;;;1.25;1.00;;;;;13.52;66.66;101945.16;6340893;22;45667;-70
2023/10/15 07:21:46;;;;;;;;;1.25;1.25;;;;;13.53;66.50;101952.31;6339975;22;46209;-71
2023/10/15 07:24:12;;;;;;;;;1.00;1.00;;;;;13.48;66.71;101931.88;6340109;22;45361;-71
2023/10/15 07:26:40;;;;;;;;;4.50;2.00;;;;;13.46;66.29;101936.41;6341192;22;45278;-71
2023/10/15 07:29:07;;;;;;;;;2.25;2.00;;;;;13.53;66.41;101956.78;6340852;22;45291;-71
2023/10/15 07:31:32;;;;;;;;;2.50;2.00;;;;;13.52;66.52;101952.34;6312737;22;45753;-71
2023/10/15 07:34:00;;;;;;;;;2.25;2.25;;;;;13.42;66.37;101934.72;6311070;22;46499;-71
2023/10/15 07:36:25;;;;;;;;;1.50;1.50;;;;;13.49;66.47;101952.41;6339870;22;45557;-70
2023/10/15 07:38:51;;;;;;;;;5.75;3.00;;;;;13.47;66.63;101960.50;6311485;22;45286;-71
2023/10/15 07:41:16;;;;;;;;;2.00;2.00;;;;;13.40;66.42;101952.63;6339511;22;45541;-71
2023/10/15 07:43:42;;;;;;;;;3.25;1.25;;;;;13.42;66.56;101954.38;6338970;22;54165;-71
2023/10/15 07:46:08;;;;;;;;;2.75;1.00;;;;;13.46;66.43;101963.22;6339641;22;45354;-71
2023/10/15 07:48:33;;;;;;;;;2.00;2.00;;;;;13.50;66.39;101967.59;6339932;22;45534;-72
2023/10/15 07:50:59;;;;;;;;;3.00;3.00;;;;;13.48;66.73;101967.66;6338941;22;45528;-73
2023/10/15 07:53:24;;;;;;;;;1.50;0.00;;;;;13.44;66.49;101963.25;6339443;22;46720;-72
2023/10/15 07:55:50;;;;;;;;;3.00;1.50;;;;;13.49;66.88;101980.13;6312160;22;45350;-71
2023/10/15 07:58:15;;;;;;;;;2.00;2.00;;;;;13.51;66.55;101977.41;6339957;22;45369;-72
2023/10/15 08:00:41;;;;;;;;;2.75;2.00;;;;;13.54;66.63;101974.66;6339410;22;45523;-71
2023/10/15 08:03:07;;;;;;;;;3.00;2.25;;;;;13.55;66.80;101979.09;6339925;22;46059;-70
2023/10/15 08:05:33;;;;;;;;;1.00;1.00;;;;;13.52;66.75;101973.81;6340183;22;45282;-72
2023/10/15 08:07:59;;;;;;;;;2.00;2.00;;;;;13.56;66.48;101980.84;6339685;22;45298;-80
2023/10/15 08:10:31;;;;;;;;;2.00;2.00;;;;;13.57;66.14;101977.25;6339450;22;45320;-77
2023/10/15 08:12:58;;;;;;;;;1.00;1.00;;;;;13.52;66.14;101963.94;6338364;22;46157;-79
2023/10/15 08:15:24;;;;;;;;;3.00;1.00;;;;;13.55;65.66;101965.69;6311921;22;45310;-79
2023/10/15 08:17:50;;;;;;;;;2.75;2.75;;;;;13.45;66.03;101957.00;6311410;22;45451;-81
2023/10/15 08:20:15;;;;;;;;;2.00;2.00;;;;;13.49;66.00;101955.09;6311535;22;45290;-81
2023/10/15 08:22:41;;;;;;;;;2.00;2.00;;;;;13.67;65.72;101986.81;6340270;22;46125;-80
2023/10/15 08:25:14;;;;;;;;;2.00;2.00;;;;;13.69;65.56;101976.94;6339656;22;45341;-80
2023/10/15 08:27:44;;;;;;;;;0.50;0.50;;;;;13.65;65.41;101977.94;6340146;22;45325;-80
2023/10/15 08:30:12;;;;;;;;;1.00;1.00;;;;;13.70;65.18;101992.13;6338784;22;45463;-80
2023/10/15 08:32:39;;;;;;;;;1.50;1.50;;;;;13.59;65.22;101964.69;6340243;22;46497;-80
2023/10/15 08:35:05;;;;;;;;;2.75;1.75;;;;;13.73;65.15;101985.78;6311890;22;45312;-78
2023/10/15 08:37:31;;;;;;;;;1.00;1.00;;;;;13.62;65.11;101966.41;6312434;22;45354;-78
2023/10/15 08:39:56;;;;;;;;;0.75;0.75;;;;;13.84;65.05;101999.81;6340749;22;45416;-76
2023/10/15 08:42:30;;;;;;;;;0.75;0.75;;;;;13.83;64.92;101995.38;6340547;22;46343;-77
2023/10/15 08:44:57;;;;;;;;;0.75;0.75;;;;;13.82;64.62;101984.69;6340070;22;45251;-76
2023/10/15 08:47:25;;;;;;;;;2.00;2.00;;;;;13.93;64.61;102005.84;6340343;22;45316;-76
2023/10/15 08:49:52;;;;;;;;;2.00;1.00;;;;;13.86;64.24;101989.03;6340327;22;45248;-78
2023/10/15 08:52:21;;;;;;;;;1.25;1.00;;;;;13.90;64.76;101996.09;6312329;22;47496;-79
2023/10/15 08:54:46;;;;;;;;;1.00;1.00;;;;;13.97;64.65;102010.25;6340201;22;45726;-80
2023/10/15 08:57:14;;;;;;;;;1.50;1.50;;;;;13.90;63.86;101998.78;6340253;22;45407;-79
2023/10/15 08:59:41;;;;;;;;;1.75;1.00;;;;;13.97;63.93;102012.94;6339068;22;45470;-79
2023/10/15 09:02:08;;;;;;;;;0.25;0.25;;;;;13.89;63.77;101992.50;6340061;22;45574;-80
2023/10/15 09:04:35;;;;;;;;;1.50;1.00;;;;;13.97;63.43;102011.13;6339640;22;45462;-79
2023/10/15 09:07:01;;;;;;;;;1.00;1.00;;;;;14.02;63.18;102027.97;6310722;22;45371;-79
2023/10/15 09:09:29;;;;;;;;;1.00;1.00;;;;;13.97;63.00;102016.47;6339938;22;45694;-79
2023/10/15 09:11:54;;;;;;;;;0.75;0.75;;;;;13.99;62.67;102014.63;6338391;22;45405;-68
2023/10/15 09:14:38;;;;;;;;;1.00;1.00;;;;;13.94;62.27;102013.00;6339334;22;45229;-67
2023/10/15 09:17:06;;;;;;;;;2.25;2.00;;;;;13.80;62.93;101983.81;6339520;22;45370;-66
2023/10/15 09:19:31;;;;;;;;;3.00;2.00;;;;;14.07;63.15;102041.28;6339846;22;45220;-72
2023/10/15 09:21:57;;;;;;;;;2.50;1.00;;;;;13.82;62.15;101990.91;6339105;22;47093;-72
2023/10/15 09:24:22;;;;;;;;;0.00;0.00;;;;;14.14;62.08;102034.81;6339637;22;45319;-71
2023/10/15 09:26:48;;;;;;;;;2.00;1.00;;;;;14.17;62.22;102034.75;6339684;22;45294;-73
2023/10/15 09:29:20;;;;;;;;;0.00;0.00;;;;;14.25;62.13;102034.56;6340543;22;45215;-72
2023/10/15 09:31:46;;;;;;;;;0.00;0.00;;;;;14.25;61.29;102038.13;6339881;22;45958;-73
2023/10/15 09:34:12;;;;;;;;;3.50;1.00;;;;;14.09;61.25;102013.47;6339324;22;45263;-76
2023/10/15 09:36:38;;;;;;;;;1.00;1.00;;;;;14.20;61.25;102039.13;6312166;22;45222;-75
2023/10/15 09:39:13;;;;;;;;;0.50;0.50;;;;;14.11;60.19;102024.16;6340034;22;45266;-75
2023/10/15 09:41:41;;;;;;;;;1.00;1.00;;;;;14.11;60.67;102028.66;6313240;22;46029;-75
2023/10/15 09:44:14;;;;;;;;;1.00;0.75;;;;;14.14;60.87;102028.59;6339393;22;45606;-74
2023/10/15 09:46:43;;;;;;;;;3.75;1.25;;;;;14.24;60.58;102046.22;6339461;22;45270;-74
2023/10/15 09:49:09;;;;;;;;;0.00;0.00;;;;;14.16;59.71;102032.97;6339316;22;45498;-75
2023/10/15 09:51:36;;;;;;;;;0.75;0.75;;;;;14.08;59.35;102030.50;6339518;22;46370;-75
2023/10/15 09:54:03;;;;;;;;;1.00;1.00;;;;;14.15;59.45;102043.75;6339172;22;45193;-74
2023/10/15 09:56:30;;;;;;;;;2.00;0.00;;;;;14.21;59.26;102047.16;6339345;22;45258;-76
2023/10/15 09:58:55;;;;;;;;;2.25;0.75;;;;;14.26;59.74;102049.72;6339591;22;45195;-74
2023/10/15 10:01:26;;;;;;;;;0.50;0.50;;;;;14.20;58.38;102042.72;6340060;22;46216;-72
2023/10/15 10:04:40;;;;;;;;;0.00;0.00;;;;;14.19;58.87;102046.31;6311426;22;45307;-73
2023/10/15 10:07:38;;;;;;;;;0.00;0.00;;;;;14.09;58.44;102048.38;6339574;22;45530;-74
2023/10/15 10:10:29;;;;;;;;;1.00;1.00;;;;;14.09;58.96;102050.19;6339298;22;45466;-75
2023/10/15 10:13:31;;;;;;;;;1.00;1.00;;;;;14.10;58.77;102038.53;6339604;22;45315;-75
2023/10/15 10:15:58;;;;;;;;;1.00;1.00;;;;;14.26;59.16;102053.28;6338733;22;45156;-80
2023/10/15 10:18:24;;;;;;;;;0.00;0.00;;;;;14.33;58.07;102054.00;6339673;22;45437;-70
2023/10/15 10:20:50;;;;;;;;;0.75;0.75;;;;;14.36;58.11;102061.97;6339109;22;45377;-72
2023/10/15 10:23:17;;;;;;;;;0.00;0.00;;;;;14.18;56.88;102017.72;6339163;22;45443;-71
2023/10/15 10:25:45;;;;;;;;;0.50;0.50;;;;;14.34;56.91;102044.16;6285574;22;45662;-70
2023/10/15 10:28:15;;;;;;;;;1.75;0.00;;;;;14.44;56.93;102056.41;6334580;22;45843;-70
2023/10/15 10:30:57;;;;;;;;;0.00;0.00;;;;;14.55;56.76;102074.91;6333862;22;45508;-69
2023/10/15 10:33:44;;;;;;;;;0.00;0.00;;;;;14.58;56.40;102077.50;6334429;22;45702;-70
2023/10/15 10:36:18;;;;;;;;;0.25;0.00;;;;;14.50;56.20;102053.56;6335883;22;45627;-69
2023/10/15 10:38:45;;;;;;;;;0.00;0.00;;;;;14.60;55.33;102070.31;6307422;22;45661;-69
2023/10/15 10:41:15;;;;;;;;;1.00;1.00;;;;;14.56;54.94;102060.56;6334439;22;45678;-69
2023/10/15 10:43:44;;;;;;;;;0.00;0.00;;;;;14.64;54.65;102069.31;6305445;22;47198;-69
2023/10/15 10:46:22;;;;;;;;;0.00;0.00;;;;;14.64;54.64;102067.50;6336589;22;45749;-69
2023/10/15 10:49:05;;;;;;;;;0.00;0.00;;;;;14.59;53.89;102047.94;6308638;22;45364;-69
2023/10/15 10:51:33;;;;;;;;;0.00;0.00;;;;;14.70;53.58;102071.84;6335746;22;45513;-69
2023/10/15 10:53:59;;;;;;;;;0.25;0.00;;;;;14.73;53.30;102068.16;6335134;22;46264;-70
2023/10/15 10:56:44;;;;;;;;;0.00;0.00;;;;;14.73;53.08;102068.16;6303919;22;45555;-71
2023/10/15 10:59:12;;;;;;;;;2.00;0.00;;;;;14.71;53.29;102064.66;6332991;22;45763;-70
2023/10/15 11:01:39;;;;;;;;;0.00;0.00;;;;;14.75;53.12;102061.84;6334013;22;45679;-71
2023/10/15 11:04:15;;;;;;;;;0.00;0.00;;;;;14.75;52.94;102059.16;6306622;22;46045;-71
2023/10/15 11:06:51;;;;;;;;;1.00;1.00;;;;;14.79;52.76;102066.19;6334952;22;45416;-71
2023/10/15 11:09:19;;;;;;;;;2.25;0.25;;;;;14.68;52.60;102044.09;6333537;22;45491;-73
2023/10/15 11:11:49;;;;;;;;;0.00;0.00;;;;;14.77;52.83;102059.09;6335618;22;45393;-70
2023/10/15 11:14:15;;;;;;;;;0.00;0.00;;;;;14.83;52.82;102072.34;6335723;22;46487;-73
2023/10/15 11:16:44;;;;;;;;;0.00;0.00;;;;;14.73;52.35;102050.22;6335718;22;45875;-69
2023/10/15 11:19:29;;;;;;;;;0.50;0.00;;;;;14.68;52.41;102036.03;6336583;22;45348;-71
2023/10/15 11:21:55;;;;;;;;;0.00;0.00;;;;;14.84;52.96;102054.44;6334430;22;45744;-70
2023/10/15 11:24:26;;;;;;;;;1.25;1.00;;;;;14.92;52.91;102064.03;6335934;22;46399;-70
2023/10/15 11:26:54;;;;;;;;;0.00;0.00;;;;;14.90;52.65;102051.53;6335324;22;45798;-71
2023/10/15 11:29:22;;;;;;;;;1.00;1.00;;;;;14.85;53.34;102034.69;6335550;22;45633;-71
2023/10/15 11:31:48;;;;;;;;;0.75;0.75;;;;;14.89;52.98;102048.00;6335231;22;45700;-70
2023/10/15 11:34:19;;;;;;;;;1.00;1.00;;;;;14.91;53.43;102042.56;6336031;22;46086;-71
2023/10/15 11:36:48;;;;;;;;;0.75;0.75;;;;;14.96;52.95;102046.88;6336060;22;45595;-72
2023/10/15 11:39:18;;;;;;;;;0.00;0.00;;;;;14.94;51.69;102051.41;6335795;22;45469;-72
2023/10/15 11:41:50;;;;;;;;;1.00;1.00;;;;;14.96;51.95;102054.94;6335813;22;45559;-73
2023/10/15 11:44:16;;;;;;;;;0.25;0.25;;;;;14.94;51.30;102053.25;6334654;22;47030;-69
2023/10/15 11:46:41;;;;;;;;;1.00;0.00;;;;;14.81;51.56;102036.56;6335490;22;45440;-71